North Lakhimpur Airport
VELR : now visible

Airfield :











YOU CAN JOIN US ON...

 
LOGIN :

Register | Disclaimer

   EN    FR    IT 

 









Legend :    VFR   Marginal VFR   IFR   Intensive IFR   Very Intensive IFR
Visi :
Ceiling :
>= 8 km
>= 3000ft
5 to 8 km
1000 to 3000 ft
1500m to 5 km
500 to 1000 ft
800 to 1500m
200 to 500 ft
< 800m
< 200 ft
Symbols :   Thunderstorms  Fog  Heavy snow  Heavy precipitations  Wind > 20 kt






- Airport Elevation : 330 ft
- IATA code : IXI


VELR - North Lakhimpur

CURRENT METAR :
  • 171200Z 04001KT 3000 BR FEW012 SCT018 BKN100 22/21 Q1012

EXPIRED METARs :
  • 171130Z 00000KT 3000 BR FEW012 SCT018 BKN100 23/22 Q1012
  • 171100Z 00000KT 3500 BR FEW012 SCT018 BKN100 23/22 Q1011
  • 171030Z 02002KT 3500 BR FEW012 SCT018 BKN100 23/23 Q1011
  • 170930Z 02001KT 3000 BR FEW010 SCT018 BKN100 24/23 Q1011

TAF TAF VELR
Valid from the 17 at 09:00 until the 17 at 18:00 UTC


170800Z 1709/1718 16004KT 4000 RA BR SCT018 OVC090
BECMG 1712/1714 00000KT 2500 RA BR



MET'MAP, your aeronautical weather chart ! - Copyright ORBIFLY December 2007 - Disclaimer

ORBIFLY MET'MAP TEAM :

Programming & Development : Alexandra Zaïnal
Concept & Development : Baudouin d'Aumeries
Co-Development & Prog : Marc-Olivier Méhu
Technical & hardware support : Manuel Goepfert

Contact : metmap@orbifly.com




SOURCES & CREDITS :

   NOAA       Earth
Advisory